Time;durP1;ratioP1;P1;durP2;ratioP2;P2;SDS_P1;SDS_P2;PMS_P1;PMS_P2;Temp;Humidity;BMP_temperature;BMP_pressure;BME280_temperature;BME280_humidity;BME280_pressure;Samples;Min_cycle;Max_cycle;Signal;HPM_P1;HPM_P2
2022/06/09 04:33:00;;;;;;;;;3.00;2.00;;;;;15.98;61.02;101413.91;2403651;28;46702;-77
2022/06/09 04:34:10;;;;;;;;;2.00;1.75;;;;;15.97;61.01;101413.06;2412497;28;44666;-77
2022/06/09 04:35:20;;;;;;;;;5.00;3.00;;;;;15.97;61.16;101421.03;2411644;28;46804;-77
2022/06/09 04:36:31;;;;;;;;;4.25;2.50;;;;;16.00;61.01;101424.47;2421354;28;45222;-77
2022/06/09 04:38:00;;;;;;;;;4.00;2.00;;;;;15.99;60.99;101420.94;2418916;28;45440;-77
2022/06/09 04:39:10;;;;;;;;;3.25;3.00;;;;;16.00;61.09;101422.66;2412800;28;44685;-77
2022/06/09 04:40:21;;;;;;;;;3.00;3.00;;;;;16.01;61.08;101427.03;2412589;28;46148;-77
2022/06/09 04:41:31;;;;;;;;;2.50;2.00;;;;;16.02;61.07;101428.78;2406526;28;45241;-76
2022/06/09 04:42:41;;;;;;;;;5.00;4.00;;;;;16.03;60.92;101426.97;2412466;28;46350;-76
2022/06/09 04:43:52;;;;;;;;;5.25;3.00;;;;;16.03;61.22;101426.97;2412422;28;45225;-77
2022/06/09 04:45:03;;;;;;;;;7.50;2.50;;;;;16.04;61.14;101434.91;2412298;28;45391;-77
2022/06/09 04:46:17;;;;;;;;;3.00;2.00;;;;;16.03;61.22;101433.13;2412246;28;44745;-77
2022/06/09 04:47:27;;;;;;;;;2.00;2.00;;;;;16.02;61.05;101428.78;2412159;28;46139;-77
2022/06/09 04:48:39;;;;;;;;;1.25;1.25;;;;;16.03;61.00;101437.56;2412735;28;45276;-77
2022/06/09 04:49:49;;;;;;;;;3.00;3.00;;;;;16.00;60.91;101432.44;2410495;28;48309;-77
2022/06/09 04:51:00;;;;;;;;;5.00;3.00;;;;;16.01;61.07;101436.78;2412008;28;45259;-77
2022/06/09 04:52:10;;;;;;;;;4.25;3.25;;;;;16.02;61.25;101441.16;2412582;28;45316;-77
2022/06/09 04:53:20;;;;;;;;;6.50;2.75;;;;;16.02;61.15;101443.81;2412407;28;44607;-77
2022/06/09 04:54:31;;;;;;;;;5.00;3.00;;;;;16.02;61.18;101441.16;2412598;28;45350;-77
2022/06/09 04:55:44;;;;;;;;;2.75;2.75;;;;;16.06;61.24;101446.28;2412793;28;45196;-77
2022/06/09 04:56:54;;;;;;;;;5.50;3.00;;;;;16.08;61.16;101446.22;2412543;28;46199;-77
2022/06/09 04:58:05;;;;;;;;;9.50;4.00;;;;;16.07;61.05;101450.69;2410850;28;45414;-77
2022/06/09 04:59:15;;;;;;;;;5.75;3.25;;;;;16.08;60.79;101451.50;2411645;28;45489;-77
2022/06/09 05:00:27;;;;;;;;;3.00;3.00;;;;;16.09;60.70;101453.25;2412678;28;45157;-77
2022/06/09 05:01:38;;;;;;;;;5.75;3.25;;;;;16.10;60.97;101465.56;2410956;28;48155;-77
2022/06/09 05:02:51;;;;;;;;;2.75;2.75;;;;;16.09;60.78;101461.19;2411336;28;44727;-77
2022/06/09 05:04:01;;;;;;;;;3.25;3.00;;;;;16.08;60.92;101467.44;2412511;28;45413;-77
2022/06/09 05:05:21;;;;;;;;;4.25;2.75;;;;;16.07;60.99;101466.59;2412432;28;44697;-77
2022/06/09 05:06:31;;;;;;;;;3.50;2.00;;;;;16.10;60.96;101475.31;2411886;28;45481;-77
2022/06/09 05:07:42;;;;;;;;;4.50;2.00;;;;;16.07;61.05;101466.59;2412331;28;45228;-77
2022/06/09 05:08:55;;;;;;;;;6.50;3.50;;;;;16.11;60.83;101469.94;2412494;28;46265;-77
2022/06/09 05:10:06;;;;;;;;;4.50;1.75;;;;;16.11;61.02;101467.28;2411991;28;45211;-77
2022/06/09 05:11:17;;;;;;;;;3.50;2.75;;;;;16.12;61.42;101474.34;2411532;28;45529;-77
2022/06/09 05:12:27;;;;;;;;;4.75;1.75;;;;;16.13;61.05;101470.72;2412139;28;45270;-77
2022/06/09 05:13:38;;;;;;;;;5.25;3.25;;;;;16.15;61.15;101476.00;2411934;28;45662;-77
2022/06/09 05:14:51;;;;;;;;;6.50;3.50;;;;;16.16;60.93;101464.44;2411689;28;45419;-77
2022/06/09 05:16:02;;;;;;;;;6.00;2.75;;;;;16.14;60.91;101472.47;2412064;28;45345;-77
2022/06/09 05:17:13;;;;;;;;;3.75;3.25;;;;;16.15;61.07;101468.88;2410057;28;45288;-77
2022/06/09 05:18:27;;;;;;;;;4.25;3.50;;;;;16.17;60.92;101480.25;2407792;28;46098;-78
2022/06/09 05:19:38;;;;;;;;;4.00;3.00;;;;;16.15;60.89;101471.53;2409387;28;45432;-78
2022/06/09 05:20:49;;;;;;;;;4.25;3.00;;;;;16.15;61.01;101471.53;2407858;28;45620;-78
2022/06/09 05:22:00;;;;;;;;;2.50;2.00;;;;;16.17;61.48;101474.97;2411218;28;44643;-78
2022/06/09 05:23:11;;;;;;;;;3.00;2.25;;;;;16.22;61.41;101474.78;2403486;28;45525;-78
2022/06/09 05:24:21;;;;;;;;;3.00;3.00;;;;;16.23;61.07;101475.63;2411301;28;45379;-78
2022/06/09 05:25:32;;;;;;;;;3.75;3.75;;;;;16.27;61.08;101478.06;2408682;28;45967;-78
2022/06/09 05:26:42;;;;;;;;;7.75;2.75;;;;;16.28;61.22;101485.09;2411268;28;45220;-78
2022/06/09 05:27:52;;;;;;;;;3.00;3.00;;;;;16.30;61.25;101482.34;2411251;28;46067;-78
2022/06/09 05:29:03;;;;;;;;;5.25;2.50;;;;;16.29;61.13;101485.97;2406092;28;45450;-78
2022/06/09 05:30:19;;;;;;;;;6.75;3.00;;;;;16.31;60.75;101489.41;2411137;28;45494;-78
2022/06/09 05:31:30;;;;;;;;;4.00;4.00;;;;;16.33;60.82;101491.97;2408866;28;45469;-78
2022/06/09 05:32:40;;;;;;;;;3.00;2.00;;;;;16.34;61.37;101489.28;2403162;28;46257;-78
2022/06/09 05:33:50;;;;;;;;;4.25;2.25;;;;;16.34;60.92;101494.56;2402579;28;44776;-78
2022/06/09 05:35:01;;;;;;;;;1.50;1.50;;;;;16.35;61.26;101490.97;2406359;28;46338;-78
2022/06/09 05:36:11;;;;;;;;;5.75;3.75;;;;;16.34;60.98;101489.28;2403291;28;45170;-78
2022/06/09 05:37:21;;;;;;;;;2.75;2.75;;;;;16.37;61.15;101497.06;2411275;28;45260;-78
2022/06/09 05:45:57;;;;;;;;;5.00;4.00;;;;;16.50;60.68;101515.09;2412109;28;45344;-78
2022/06/09 05:47:07;;;;;;;;;4.00;3.00;;;;;16.51;60.89;101516.81;2410666;28;44777;-78
2022/06/09 05:48:19;;;;;;;;;4.00;3.00;;;;;16.51;61.09;101512.38;2411527;28;46598;-78
2022/06/09 05:49:32;;;;;;;;;3.25;2.75;;;;;16.53;60.75;101513.16;2412223;28;45470;-78
2022/06/09 05:50:43;;;;;;;;;2.50;2.50;;;;;16.57;60.85;101510.38;2411463;28;46218;-78
2022/06/09 05:51:53;;;;;;;;;5.00;3.00;;;;;16.59;61.14;101509.38;2412376;28;45228;-78
2022/06/09 05:53:03;;;;;;;;;6.00;5.00;;;;;16.60;60.73;101513.72;2410750;28;45277;-78
2022/06/09 05:54:14;;;;;;;;;4.75;2.00;;;;;16.64;60.71;101517.94;2411812;28;45230;-78
2022/06/09 05:55:24;;;;;;;;;4.50;4.00;;;;;16.63;60.38;101512.72;2413206;28;45721;-78
2022/06/09 05:56:34;;;;;;;;;5.50;3.50;;;;;16.67;60.43;101516.94;2413678;28;45202;-78
2022/06/09 05:57:45;;;;;;;;;6.00;4.75;;;;;16.69;60.69;101519.56;2410772;28;48334;-78
2022/06/09 05:58:55;;;;;;;;;5.00;3.25;;;;;16.70;60.61;101522.13;2411495;28;45367;-78
2022/06/09 06:00:06;;;;;;;;;3.75;2.25;;;;;16.73;60.57;101521.13;2410027;28;45411;-77
2022/06/09 06:01:16;;;;;;;;;3.50;3.00;;;;;16.73;60.83;101521.13;2412295;28;45371;-78
2022/06/09 06:02:27;;;;;;;;;3.00;2.75;;;;;16.75;60.32;101513.94;2411926;28;45845;-78
2022/06/09 06:03:39;;;;;;;;;4.00;4.00;;;;;16.79;60.46;101520.81;2412199;28;44757;-78
2022/06/09 06:04:50;;;;;;;;;4.50;3.75;;;;;16.80;60.32;101527.88;2412938;28;46610;-78
2022/06/09 06:07:30;;;;;;;;;4.75;3.00;;;;;16.86;60.30;101522.28;2406885;28;45762;-78
2022/06/09 06:08:40;;;;;;;;;2.00;2.00;;;;;16.91;59.90;101526.50;2418910;28;44781;-78
2022/06/09 06:09:50;;;;;;;;;7.00;2.00;;;;;16.90;60.09;101527.44;2420206;28;45382;-79
2022/06/09 06:11:01;;;;;;;;;3.00;2.50;;;;;16.93;60.48;101520.19;2413742;28;45272;-78
2022/06/09 06:12:11;;;;;;;;;5.00;3.00;;;;;16.97;60.42;101534.16;2412108;28;47398;-78
2022/06/09 06:13:22;;;;;;;;;5.25;4.00;;;;;16.99;59.72;101530.50;2413011;28;44800;-78
2022/06/09 06:14:32;;;;;;;;;5.00;3.00;;;;;17.02;60.13;101537.47;2413612;28;45241;-78
2022/06/09 06:15:43;;;;;;;;;3.25;2.75;;;;;17.03;59.87;101536.53;2413671;28;45237;-79
2022/06/09 06:16:53;;;;;;;;;2.50;2.50;;;;;17.05;60.24;101537.34;2413211;28;45237;-79
2022/06/09 06:18:04;;;;;;;;;3.25;3.25;;;;;17.06;59.95;101538.19;2413331;28;45204;-78
2022/06/09 06:19:17;;;;;;;;;3.00;2.00;;;;;17.10;60.06;101539.75;2413400;28;45474;-78
2022/06/09 06:20:28;;;;;;;;;4.50;4.25;;;;;17.12;59.77;101542.34;2413505;28;44700;-79
2022/06/09 06:21:40;;;;;;;;;3.75;2.00;;;;;17.14;59.76;101537.81;2413605;28;45410;-78
2022/06/09 06:22:50;;;;;;;;;4.25;3.00;;;;;17.17;60.04;101540.34;2412633;28;45607;-78
2022/06/09 06:24:02;;;;;;;;;4.75;4.00;;;;;17.21;59.75;101544.59;2421589;28;48023;-79
2022/06/09 06:25:12;;;;;;;;;6.00;4.25;;;;;17.22;59.57;101543.66;2419926;28;45545;-78
2022/06/09 06:26:23;;;;;;;;;3.25;2.25;;;;;17.26;59.43;101547.88;2412593;28;47920;-78
2022/06/09 06:27:33;;;;;;;;;3.75;3.00;;;;;17.28;59.74;101538.06;2413024;28;45244;-78
2022/06/09 06:28:43;;;;;;;;;4.00;3.75;;;;;17.32;59.77;101539.63;2413298;28;45584;-78
2022/06/09 06:29:54;;;;;;;;;5.25;3.00;;;;;17.38;59.22;101542.91;2413813;28;45233;-78
2022/06/09 06:31:04;;;;;;;;;6.75;3.50;;;;;17.38;59.19;101543.78;2413678;28;46526;-78
2022/06/09 06:32:14;;;;;;;;;3.00;3.00;;;;;17.40;58.99;101541.03;2413243;28;45239;-79
2022/06/09 06:33:25;;;;;;;;;5.25;2.75;;;;;17.44;59.21;101558.53;2413381;28;45248;-79
2022/06/09 06:34:35;;;;;;;;;5.00;2.50;;;;;17.43;58.92;101546.19;2413109;28;45499;-78
2022/06/09 06:35:46;;;;;;;;;3.00;3.00;;;;;17.49;59.01;101553.00;2412636;28;47414;-78
2022/06/09 06:36:56;;;;;;;;;6.50;3.00;;;;;17.52;59.16;101550.19;2412808;28;44676;-78
2022/06/09 06:38:06;;;;;;;;;6.25;4.50;;;;;17.53;59.02;101558.06;2413280;28;45431;-78
2022/06/09 06:39:17;;;;;;;;;8.00;3.75;;;;;17.53;58.54;101555.41;2412981;28;45388;-78
2022/06/09 06:40:27;;;;;;;;;3.75;2.75;;;;;17.53;58.52;101562.56;2405139;28;47181;-78
2022/06/09 06:41:38;;;;;;;;;2.00;2.00;;;;;17.51;58.74;101562.63;2412200;28;45183;-78
2022/06/09 06:42:48;;;;;;;;;5.00;4.00;;;;;17.50;58.88;101563.56;2418454;28;47309;-78
2022/06/09 06:43:59;;;;;;;;;7.00;4.00;;;;;17.46;58.54;101559.31;2419218;28;45353;-78
2022/06/09 06:45:14;;;;;;;;;4.75;2.75;;;;;17.47;59.10;101561.06;2422101;28;46872;-78
2022/06/09 06:46:24;;;;;;;;;6.50;4.00;;;;;17.47;59.07;101563.72;2415893;28;45273;-78
2022/06/09 06:47:35;;;;;;;;;4.00;3.75;;;;;17.47;59.00;101563.72;2407769;28;45522;-78
2022/06/09 06:48:46;;;;;;;;;3.00;3.00;;;;;17.50;59.09;101568.00;2413234;28;44750;-78
2022/06/09 06:49:56;;;;;;;;;5.75;3.00;;;;;17.49;58.67;101574.25;2413251;28;45388;-78
2022/06/09 06:51:07;;;;;;;;;5.50;4.00;;;;;17.51;58.61;101567.94;2412768;28;45175;-78
2022/06/09 06:52:17;;;;;;;;;2.00;2.00;;;;;17.52;58.62;101567.00;2412889;28;45449;-78
2022/06/09 06:53:28;;;;;;;;;3.25;2.50;;;;;17.56;58.95;101578.31;2413561;28;45343;-78
2022/06/09 06:54:38;;;;;;;;;7.00;3.00;;;;;17.58;58.18;101575.63;2412901;28;45489;-78
2022/06/09 06:55:48;;;;;;;;;3.75;3.25;;;;;17.57;58.34;101566.78;2413438;28;45320;-78
2022/06/09 06:56:59;;;;;;;;;4.75;3.00;;;;;17.56;58.22;101577.50;2413153;28;45458;-78
2022/06/09 06:58:10;;;;;;;;;7.50;4.00;;;;;17.51;58.25;101562.63;2412316;28;45442;-78
2022/06/09 06:59:20;;;;;;;;;5.75;3.50;;;;;17.50;57.83;101568.88;2413097;28;46222;-78
2022/06/09 07:00:30;;;;;;;;;4.50;4.00;;;;;17.52;57.76;101577.63;2412686;28;45512;-78
2022/06/09 07:01:41;;;;;;;;;3.00;1.25;;;;;17.51;57.93;101580.34;2412686;28;45253;-78
2022/06/09 07:02:51;;;;;;;;;3.00;3.00;;;;;17.50;58.58;101578.66;2413012;28;44638;-78
2022/06/09 07:04:03;;;;;;;;;4.75;4.25;;;;;17.51;58.23;101581.22;2413366;28;46153;-78
2022/06/09 07:05:15;;;;;;;;;7.50;4.00;;;;;17.53;58.27;101583.81;2413518;28;44564;-78
2022/06/09 07:06:26;;;;;;;;;4.00;2.50;;;;;17.56;58.32;101593.44;2411777;28;45475;-78
2022/06/09 07:07:39;;;;;;;;;8.00;6.25;;;;;17.57;58.44;101587.16;2412835;28;45264;-78
2022/06/09 07:08:49;;;;;;;;;8.25;5.75;;;;;17.59;58.59;101590.59;2411844;28;46666;-78
2022/06/09 07:09:59;;;;;;;;;6.00;4.50;;;;;17.59;57.68;101585.28;2413361;28;45245;-78
2022/06/09 07:11:10;;;;;;;;;4.50;3.25;;;;;17.59;57.93;101593.25;2413116;28;45339;-78
2022/06/09 07:12:20;;;;;;;;;3.25;2.25;;;;;17.54;58.12;101594.34;2412737;28;45320;-78
2022/06/09 07:13:30;;;;;;;;;6.50;4.00;;;;;17.56;58.20;101594.28;2412742;28;46234;-78
2022/06/09 07:14:41;;;;;;;;;4.75;4.75;;;;;17.58;58.50;101597.72;2413556;28;45220;-78
2022/06/09 07:15:52;;;;;;;;;6.00;4.25;;;;;17.61;58.04;101600.22;2412881;28;45525;-78
2022/06/09 07:17:03;;;;;;;;;5.50;4.00;;;;;17.65;58.55;101598.28;2412709;28;45225;-78
2022/06/09 07:18:13;;;;;;;;;6.00;3.25;;;;;17.67;58.34;101599.06;2412185;28;45285;-78
2022/06/09 07:19:23;;;;;;;;;7.00;5.00;;;;;17.69;58.25;101605.16;2413273;28;45458;-78
2022/06/09 07:20:34;;;;;;;;;6.50;4.00;;;;;17.69;58.25;101588.34;2412354;28;46073;-78
2022/06/09 07:21:44;;;;;;;;;3.50;3.25;;;;;17.75;58.04;101604.00;2412842;28;44581;-78
2022/06/09 07:22:55;;;;;;;;;5.00;4.25;;;;;17.79;57.48;101596.72;2413135;28;46468;-78
2022/06/09 07:24:05;;;;;;;;;3.25;3.25;;;;;17.82;58.21;101604.56;2421769;28;45373;-78
2022/06/09 07:25:23;;;;;;;;;5.50;4.00;;;;;17.85;57.76;101609.72;2412537;28;47178;-78
2022/06/09 07:26:34;;;;;;;;;5.00;2.75;;;;;17.88;57.90;101614.88;2412938;28;45160;-78
2022/06/09 07:27:44;;;;;;;;;10.00;5.00;;;;;17.92;57.70;101616.47;2412982;28;46187;-78
2022/06/09 07:28:54;;;;;;;;;7.50;5.00;;;;;17.94;57.20;101616.38;2412169;28;45270;-78
2022/06/09 07:30:06;;;;;;;;;2.00;0.50;;;;;17.97;56.99;101626.88;2412649;28;46269;-78
2022/06/09 07:31:16;;;;;;;;;5.25;4.50;;;;;17.94;56.94;101617.25;2413269;28;45443;-78
2022/06/09 07:32:26;;;;;;;;;9.00;4.25;;;;;17.99;57.26;101627.66;2412666;28;46153;-78
2022/06/09 07:33:39;;;;;;;;;6.00;3.25;;;;;18.00;56.88;101616.09;2413342;28;44653;-78
2022/06/09 07:34:49;;;;;;;;;4.75;3.25;;;;;18.00;57.02;101616.91;2412447;28;45410;-78
2022/06/09 07:36:00;;;;;;;;;11.00;4.00;;;;;18.02;56.67;101626.63;2413244;28;45237;-78
2022/06/09 07:37:11;;;;;;;;;4.75;3.75;;;;;18.00;56.90;101627.56;2412931;28;45446;-78
2022/06/09 07:38:22;;;;;;;;;5.25;3.75;;;;;18.00;56.89;101630.22;2411988;28;45270;-78
2022/06/09 07:39:33;;;;;;;;;10.75;6.00;;;;;18.02;56.10;101626.63;2412471;28;46411;-78
2022/06/09 07:40:44;;;;;;;;;7.00;4.25;;;;;18.03;56.22;101631.00;2409180;28;45414;-78
2022/06/09 07:41:55;;;;;;;;;6.50;6.25;;;;;18.02;56.36;101630.16;2407913;28;47259;-77
2022/06/09 07:43:06;;;;;;;;;5.25;5.25;;;;;18.03;56.26;101623.00;2412651;28;45247;-78
2022/06/09 07:44:16;;;;;;;;;8.25;5.00;;;;;18.03;56.47;101629.19;2413251;28;46459;-78
2022/06/09 07:45:27;;;;;;;;;6.75;5.75;;;;;18.07;56.04;101632.59;2413111;28;44692;-78
2022/06/09 07:46:39;;;;;;;;;5.00;3.75;;;;;18.10;56.13;101635.06;2413042;28;45357;-78
2022/06/09 07:47:49;;;;;;;;;5.25;4.25;;;;;18.10;56.14;101629.75;2412968;28;45166;-78
2022/06/09 07:49:00;;;;;;;;;8.25;5.00;;;;;18.15;56.41;101633.03;2412438;28;45408;-78
2022/06/09 07:50:13;;;;;;;;;4.75;3.25;;;;;18.20;55.69;101628.38;2413179;28;45233;-78
2022/06/09 07:51:24;;;;;;;;;4.25;4.25;;;;;18.24;56.68;101625.56;2412209;28;46495;-78
2022/06/09 07:52:35;;;;;;;;;4.50;4.50;;;;;18.29;56.41;101635.03;2411790;28;45189;-78
2022/06/09 07:53:46;;;;;;;;;4.25;4.00;;;;;18.32;55.51;101634.03;2409986;28;46274;-78
2022/06/09 07:54:56;;;;;;;;;8.00;5.00;;;;;18.32;55.81;101629.53;2413086;28;45347;-83
2022/06/09 07:56:07;;;;;;;;;5.50;4.25;;;;;18.36;56.18;101630.25;2412368;28;46095;-81
2022/06/09 07:57:17;;;;;;;;;7.00;7.00;;;;;18.37;56.23;101634.63;2412773;28;44729;-81
2022/06/09 07:58:27;;;;;;;;;6.25;5.00;;;;;18.42;55.89;101635.25;2412573;28;45346;-81
2022/06/09 07:59:38;;;;;;;;;4.25;4.00;;;;;18.50;56.22;101636.63;2413035;28;45308;-81
2022/06/09 08:00:49;;;;;;;;;7.75;5.75;;;;;18.53;56.13;101631.16;2421758;28;47039;-81
2022/06/09 08:01:59;;;;;;;;;7.00;5.75;;;;;18.57;55.36;101634.53;2418971;28;45508;-81
2022/06/09 08:03:19;;;;;;;;;7.25;5.00;;;;;18.55;54.88;101629.28;2412189;28;46400;-81
2022/06/09 08:04:30;;;;;;;;;3.50;3.50;;;;;18.55;54.43;101635.47;2413048;28;45204;-81
2022/06/09 08:05:40;;;;;;;;;4.00;3.00;;;;;18.55;54.10;101634.59;2412818;28;46156;-81
2022/06/09 08:06:51;;;;;;;;;4.50;4.00;;;;;18.55;53.96;101642.59;2413083;28;44631;-81
2022/06/09 08:08:02;;;;;;;;;5.50;4.00;;;;;18.53;54.28;101640.00;2412802;28;46197;-82
2022/06/09 08:09:12;;;;;;;;;3.00;3.00;;;;;18.54;54.06;101644.38;2412084;28;45241;-81
2022/06/09 08:10:26;;;;;;;;;2.00;2.00;;;;;18.53;54.42;101647.13;2411361;28;45419;-81
2022/06/09 08:11:37;;;;;;;;;4.00;3.00;;;;;18.53;54.41;101632.03;2409244;28;44899;-81
2022/06/09 08:12:51;;;;;;;;;5.00;4.25;;;;;18.57;54.66;101640.69;2404785;28;45467;-81
2022/06/09 08:14:03;;;;;;;;;4.00;3.25;;;;;18.59;54.32;101638.84;2412519;28;45494;-82
2022/06/09 08:15:13;;;;;;;;;4.00;3.75;;;;;18.64;54.85;101649.25;2411938;28;45652;-81
2022/06/09 08:16:24;;;;;;;;;7.00;4.00;;;;;18.68;55.30;101650.78;2412349;28;45474;-81
2022/06/09 08:17:35;;;;;;;;;3.75;3.25;;;;;18.70;55.06;101648.03;2409215;28;46294;-81
2022/06/09 08:18:45;;;;;;;;;6.75;3.00;;;;;18.70;54.59;101643.56;2409571;28;45484;-82
2022/06/09 08:19:55;;;;;;;;;9.00;5.50;;;;;18.75;54.43;101648.66;2411352;28;45443;-82
2022/06/09 08:21:06;;;;;;;;;3.25;3.25;;;;;18.75;54.80;101646.84;2410391;28;44852;-81
2022/06/09 08:22:17;;;;;;;;;6.75;4.00;;;;;18.80;54.34;101651.94;2403747;28;49455;-81
2022/06/09 08:23:28;;;;;;;;;5.25;3.25;;;;;18.79;54.30;101652.91;2410865;28;45482;-82
2022/06/09 08:24:38;;;;;;;;;4.00;3.75;;;;;18.81;54.68;101651.00;2409836;28;45683;-81
2022/06/09 08:25:51;;;;;;;;;6.75;5.25;;;;;18.83;54.90;101649.13;2410587;28;46107;-81
2022/06/09 08:27:02;;;;;;;;;4.00;3.25;;;;;18.88;54.47;101656.84;2411745;28;45161;-82
2022/06/09 08:28:13;;;;;;;;;3.25;3.00;;;;;18.90;53.83;101649.63;2412136;28;45490;-81
2022/06/09 08:29:25;;;;;;;;;5.25;4.75;;;;;18.90;53.30;101657.63;2412016;28;45492;-81
2022/06/09 08:30:37;;;;;;;;;4.75;3.50;;;;;18.88;53.07;101660.38;2420836;28;45288;-81
2022/06/09 08:31:47;;;;;;;;;5.75;4.00;;;;;18.87;53.46;101658.66;2417225;28;45622;-81
2022/06/09 08:32:57;;;;;;;;;4.00;3.00;;;;;18.87;53.41;101660.44;2412541;28;44639;-81
2022/06/09 08:34:09;;;;;;;;;7.00;3.25;;;;;18.89;53.96;101666.53;2411721;28;47302;-81
2022/06/09 08:35:20;;;;;;;;;5.75;3.75;;;;;18.93;54.13;101664.59;2411880;28;45434;-81
2022/06/09 08:36:30;;;;;;;;;7.50;5.75;;;;;18.95;53.77;101665.38;2419474;28;46854;-81
2022/06/09 08:37:42;;;;;;;;;4.50;2.50;;;;;18.96;53.54;101665.28;2418668;28;45493;-81
2022/06/09 08:38:53;;;;;;;;;4.00;4.00;;;;;19.00;54.06;101665.97;2421406;28;47865;-81
2022/06/09 08:40:05;;;;;;;;;5.75;3.75;;;;;19.04;53.92;101661.34;2419218;28;44652;-81
2022/06/09 08:41:36;;;;;;;;;4.00;3.00;;;;;19.08;54.17;101662.91;2412075;28;45661;-81
2022/06/09 08:43:25;;;;;;;;;6.50;3.75;;;;;19.11;53.88;101666.25;2409829;28;45411;-81
2022/06/09 08:44:47;;;;;;;;;4.75;4.00;;;;;19.11;52.69;101663.56;2411988;28;45648;-81
2022/06/09 08:46:18;;;;;;;;;5.00;4.00;;;;;19.06;52.23;101662.97;2410145;28;45451;-81
2022/06/09 08:47:37;;;;;;;;;6.50;4.00;;;;;19.03;52.93;101663.16;2410508;28;60876;-81
2022/06/09 08:48:50;;;;;;;;;9.75;3.00;;;;;19.03;53.15;101671.16;2399417;28;45325;-81
2022/06/09 08:50:13;;;;;;;;;3.50;3.00;;;;;19.06;53.18;101670.97;2409931;28;45525;-81
2022/06/09 08:51:42;;;;;;;;;3.00;3.00;;;;;19.08;53.90;101678.88;2405085;28;45277;-82
2022/06/09 08:53:05;;;;;;;;;5.00;4.00;;;;;19.08;53.68;101663.75;2412716;28;46126;-81
2022/06/09 08:54:21;;;;;;;;;5.75;4.00;;;;;19.09;53.40;101657.47;2412410;28;45267;-81
2022/06/09 08:55:40;;;;;;;;;5.00;3.00;;;;;19.12;53.16;101665.31;2412580;28;46420;-82
2022/06/09 08:56:51;;;;;;;;;5.25;4.75;;;;;19.12;53.32;101653.78;2412245;28;44666;-81
2022/06/09 08:58:12;;;;;;;;;5.00;3.50;;;;;19.18;53.01;101657.97;2412408;28;45309;-81
2022/06/09 08:59:28;;;;;;;;;2.75;2.75;;;;;19.18;51.38;101652.63;2412592;28;44654;-81
2022/06/09 09:00:44;;;;;;;;;3.75;3.00;;;;;19.16;52.70;101659.81;2411884;28;47344;-81
2022/06/09 09:02:03;;;;;;;;;6.50;4.75;;;;;19.16;52.54;101647.34;2412378;28;44640;-81
2022/06/09 09:03:28;;;;;;;;;6.25;4.00;;;;;19.18;53.07;101652.63;2411646;28;46632;-81
2022/06/09 09:04:43;;;;;;;;;4.75;3.00;;;;;19.20;52.53;101651.59;2411825;28;44806;-82
2022/06/09 09:05:59;;;;;;;;;5.50;4.00;;;;;19.26;51.83;101666.38;2412146;28;45516;-82
2022/06/09 09:07:27;;;;;;;;;3.00;3.00;;;;;19.28;52.04;101655.66;2412595;28;45271;-81
2022/06/09 09:08:38;;;;;;;;;3.00;2.25;;;;;19.29;51.60;101654.69;2411528;28;48238;-81
2022/06/09 09:09:48;;;;;;;;;2.25;2.00;;;;;19.27;51.42;101657.44;2412081;28;45190;-81
2022/06/09 09:11:32;;;;;;;;;4.75;3.00;;;;;19.31;52.14;101655.47;2412375;28;45336;-82
2022/06/09 09:13:20;;;;;;;;;3.25;3.25;;;;;19.37;51.74;101657.78;2412091;28;46059;-81
2022/06/09 09:14:42;;;;;;;;;5.00;3.50;;;;;19.38;52.40;101653.31;2412484;28;45316;-82
2022/06/09 09:15:56;;;;;;;;;5.25;3.50;;;;;19.40;51.23;101654.09;2412560;28;45266;-81
2022/06/09 09:17:38;;;;;;;;;0.00;0.00;;;;;19.43;52.31;101653.94;2411198;28;45423;-82
2022/06/09 09:18:59;;;;;;;;;3.00;3.00;;;;;19.47;50.70;101647.47;2412021;28;45153;-81
2022/06/09 09:20:21;;;;;;;;;3.25;3.00;;;;;19.49;51.03;101656.22;2411460;28;46363;-81
2022/06/09 09:21:40;;;;;;;;;6.50;4.00;;;;;19.49;51.56;101648.25;2412104;28;44798;-81
2022/06/09 09:22:50;;;;;;;;;4.75;2.75;;;;;19.54;51.44;101656.84;2411552;28;45621;-81
2022/06/09 09:24:17;;;;;;;;;5.50;3.00;;;;;19.58;51.72;101651.34;2412463;28;45363;-79
2022/06/09 09:25:46;;;;;;;;;3.00;3.00;;;;;19.65;51.86;101650.03;2412362;28;45482;-78
2022/06/09 09:27:25;;;;;;;;;4.50;3.25;;;;;19.72;51.85;101650.53;2408899;28;45501;-79
2022/06/09 09:28:54;;;;;;;;;6.00;3.00;;;;;19.77;51.85;101657.34;2407767;28;45429;-79
2022/06/09 09:30:34;;;;;;;;;8.00;4.00;;;;;19.85;52.05;101659.53;2407506;28;45398;-79
2022/06/09 09:31:56;;;;;;;;;3.00;2.00;;;;;19.91;51.77;101666.31;2410217;28;45427;-79
2022/06/09 09:33:15;;;;;;;;;3.25;2.50;;;;;19.97;51.26;101666.00;2410664;28;45335;-78
2022/06/09 09:34:34;;;;;;;;;2.00;2.00;;;;;20.04;50.93;101666.47;2406464;28;45899;-78
2022/06/09 09:35:49;;;;;;;;;3.25;1.75;;;;;20.08;51.36;101672.47;2409420;28;45772;-79
2022/06/09 09:37:14;;;;;;;;;4.50;4.00;;;;;20.11;50.61;101665.19;2406678;28;45770;-79
2022/06/09 09:38:30;;;;;;;;;2.50;1.00;;;;;20.16;50.97;101667.59;2420213;28;45618;-79
2022/06/09 09:39:46;;;;;;;;;4.50;3.50;;;;;20.20;50.97;101663.78;2414297;28;45585;-79
2022/06/09 09:40:59;;;;;;;;;5.00;3.25;;;;;20.26;50.66;101664.38;2408532;28;45696;-79
2022/06/09 09:42:14;;;;;;;;;4.25;2.75;;;;;20.29;50.39;101661.53;2411393;28;45487;-79
2022/06/09 09:43:34;;;;;;;;;1.25;1.25;;;;;20.33;50.47;101663.91;2411825;28;44596;-79
2022/06/09 09:45:09;;;;;;;;;3.00;2.25;;;;;20.35;50.20;101662.00;2411916;28;46614;-79
2022/06/09 09:46:32;;;;;;;;;3.00;2.00;;;;;20.37;49.40;101667.28;2411997;28;44779;-79
2022/06/09 09:47:48;;;;;;;;;2.50;2.00;;;;;20.39;48.87;101668.03;2420276;28;48028;-79
2022/06/09 09:49:15;;;;;;;;;4.75;3.00;;;;;20.40;49.39;101664.41;2417548;28;45430;-79
2022/06/09 09:50:32;;;;;;;;;3.25;2.00;;;;;20.41;49.42;101657.25;2411393;28;46371;-79
2022/06/09 09:51:43;;;;;;;;;3.50;2.00;;;;;20.40;49.34;101655.53;2402468;28;45362;-79
2022/06/09 09:52:58;;;;;;;;;5.00;3.00;;;;;20.44;49.73;101651.72;2418976;28;47414;-79
2022/06/09 09:54:17;;;;;;;;;2.00;2.00;;;;;20.48;49.49;101657.72;2421033;28;45281;-79
2022/06/09 09:55:38;;;;;;;;;2.25;2.25;;;;;20.50;48.45;101650.47;2420948;28;48319;-79
2022/06/09 09:57:02;;;;;;;;;3.25;3.25;;;;;20.52;49.06;101661.94;2416574;28;45352;-79
2022/06/09 09:58:33;;;;;;;;;2.00;2.00;;;;;20.53;49.04;101663.66;2411749;28;45463;-79
2022/06/09 09:59:51;;;;;;;;;3.00;3.00;;;;;20.55;48.57;101667.06;2412239;28;45245;-79
2022/06/09 10:01:23;;;;;;;;;4.00;3.00;;;;;20.56;48.84;101671.47;2411163;28;46576;-79
2022/06/09 10:09:12;;;;;;;;;3.00;3.00;;;;;20.55;48.14;101675.09;2407982;28;45467;-79
2022/06/09 10:10:27;;;;;;;;;2.00;2.00;;;;;20.59;48.18;101679.31;2411305;28;45704;-79
2022/06/09 10:11:53;;;;;;;;;2.50;2.00;;;;;20.62;48.11;101681.78;2411876;28;44689;-79
2022/06/09 10:13:14;;;;;;;;;2.75;2.50;;;;;20.66;47.79;101677.13;2402655;28;46225;-79
2022/06/09 10:14:54;;;;;;;;;1.25;1.00;;;;;20.68;48.13;101681.41;2419398;28;44864;-79
2022/06/09 10:16:04;;;;;;;;;2.75;2.75;;;;;20.69;48.23;101677.78;2410984;28;45637;-79
2022/06/09 10:17:38;;;;;;;;;3.00;3.00;;;;;20.74;47.89;101679.31;2411746;28;45303;-79
2022/06/09 10:18:53;;;;;;;;;2.25;2.25;;;;;20.75;48.03;101676.53;2408098;28;45528;-79
2022/06/09 10:20:22;;;;;;;;;3.00;2.75;;;;;20.78;48.43;101686.19;2409175;28;45609;-79
2022/06/09 10:21:49;;;;;;;;;3.75;3.00;;;;;20.76;47.48;101685.44;2408307;28;46481;-79
2022/06/09 10:23:13;;;;;;;;;3.25;3.00;;;;;20.74;47.49;101673.97;2411693;28;45241;-79
2022/06/09 10:24:45;;;;;;;;;3.75;2.25;;;;;20.71;47.25;101687.53;2411455;28;45462;-79
2022/06/09 10:26:07;;;;;;;;;3.00;1.00;;;;;20.68;47.70;101692.09;2405647;28;45206;-79
2022/06/09 10:27:23;;;;;;;;;5.50;2.00;;;;;20.67;47.97;101678.81;2409828;28;45463;-79
2022/06/09 10:28:53;;;;;;;;;5.00;2.75;;;;;20.67;47.59;101694.84;2411239;28;45191;-79
2022/06/09 10:30:12;;;;;;;;;3.00;3.00;;;;;20.66;45.87;101690.47;2411103;28;45420;-79
2022/06/09 10:32:11;;;;;;;;;6.00;3.25;;;;;20.58;44.88;101683.78;2410554;28;44631;-79
2022/06/09 10:33:49;;;;;;;;;2.00;2.00;;;;;20.46;46.34;101685.41;2419856;28;47628;-79